sensor_id;sensor_type;location;lat;lon;timestamp;P1;durP1;ratioP1;P2;durP2;ratioP2
33987;SDS011;37428;53.580;-1.666;2023-02-26T00:00:08;35.85;;;12.10;;
33987;SDS011;37428;53.580;-1.666;2023-02-26T00:03:15;36.05;;;13.13;;
33987;SDS011;37428;53.580;-1.666;2023-02-26T00:06:18;18.33;;;7.45;;
33987;SDS011;37428;53.580;-1.666;2023-02-26T00:12:22;7.05;;;2.13;;
33987;SDS011;37428;53.580;-1.666;2023-02-26T00:15:27;8.90;;;2.50;;
33987;SDS011;37428;53.580;-1.666;2023-02-26T00:18:32;19.95;;;3.03;;
33987;SDS011;37428;53.580;-1.666;2023-02-26T00:21:34;13.45;;;3.10;;
33987;SDS011;37428;53.580;-1.666;2023-02-26T00:24:37;17.30;;;6.72;;
33987;SDS011;37428;53.580;-1.666;2023-02-26T00:27:39;14.75;;;4.30;;
33987;SDS011;37428;53.580;-1.666;2023-02-26T00:30:43;13.50;;;4.18;;
33987;SDS011;37428;53.580;-1.666;2023-02-26T00:33:47;10.93;;;3.20;;
33987;SDS011;37428;53.580;-1.666;2023-02-26T00:36:52;7.03;;;2.42;;
33987;SDS011;37428;53.580;-1.666;2023-02-26T00:40:10;12.65;;;2.28;;
33987;SDS011;37428;53.580;-1.666;2023-02-26T00:43:19;8.38;;;1.60;;
33987;SDS011;37428;53.580;-1.666;2023-02-26T00:46:27;9.80;;;1.90;;
33987;SDS011;37428;53.580;-1.666;2023-02-26T00:49:48;4.88;;;2.35;;
33987;SDS011;37428;53.580;-1.666;2023-02-26T00:53:05;8.00;;;1.90;;
33987;SDS011;37428;53.580;-1.666;2023-02-26T00:56:13;11.40;;;2.90;;
33987;SDS011;37428;53.580;-1.666;2023-02-26T00:59:15;14.90;;;2.95;;
33987;SDS011;37428;53.580;-1.666;2023-02-26T01:05:21;6.90;;;2.77;;
33987;SDS011;37428;53.580;-1.666;2023-02-26T01:08:26;13.20;;;3.55;;
33987;SDS011;37428;53.580;-1.666;2023-02-26T01:11:35;12.18;;;3.00;;
33987;SDS011;37428;53.580;-1.666;2023-02-26T01:14:37;14.27;;;2.67;;
33987;SDS011;37428;53.580;-1.666;2023-02-26T01:17:43;11.95;;;2.38;;
33987;SDS011;37428;53.580;-1.666;2023-02-26T01:20:50;6.80;;;2.53;;
33987;SDS011;37428;53.580;-1.666;2023-02-26T01:23:56;8.88;;;2.58;;
33987;SDS011;37428;53.580;-1.666;2023-02-26T01:27:01;13.18;;;4.18;;
33987;SDS011;37428;53.580;-1.666;2023-02-26T01:30:04;7.28;;;2.10;;
33987;SDS011;37428;53.580;-1.666;2023-02-26T01:33:09;15.05;;;2.00;;
33987;SDS011;37428;53.580;-1.666;2023-02-26T01:36:20;10.43;;;2.08;;
33987;SDS011;37428;53.580;-1.666;2023-02-26T01:39:25;12.05;;;1.65;;
33987;SDS011;37428;53.580;-1.666;2023-02-26T01:42:32;14.35;;;2.17;;
33987;SDS011;37428;53.580;-1.666;2023-02-26T01:45:42;14.82;;;2.47;;
33987;SDS011;37428;53.580;-1.666;2023-02-26T01:48:56;7.75;;;1.75;;
33987;SDS011;37428;53.580;-1.666;2023-02-26T01:52:00;6.97;;;1.70;;
33987;SDS011;37428;53.580;-1.666;2023-02-26T01:55:03;16.08;;;1.98;;
33987;SDS011;37428;53.580;-1.666;2023-02-26T01:58:06;14.23;;;2.08;;
33987;SDS011;37428;53.580;-1.666;2023-02-26T02:01:08;11.48;;;2.20;;
33987;SDS011;37428;53.580;-1.666;2023-02-26T02:04:11;11.48;;;1.65;;
33987;SDS011;37428;53.580;-1.666;2023-02-26T02:07:17;10.50;;;1.48;;
33987;SDS011;37428;53.580;-1.666;2023-02-26T02:10:19;9.63;;;1.75;;
33987;SDS011;37428;53.580;-1.666;2023-02-26T02:13:25;12.38;;;2.20;;
33987;SDS011;37428;53.580;-1.666;2023-02-26T02:16:36;6.93;;;2.13;;
33987;SDS011;37428;53.580;-1.666;2023-02-26T02:19:58;15.20;;;2.05;;
33987;SDS011;37428;53.580;-1.666;2023-02-26T02:23:23;5.00;;;2.00;;
33987;SDS011;37428;53.580;-1.666;2023-02-26T02:30:03;10.23;;;2.38;;
33987;SDS011;37428;53.580;-1.666;2023-02-26T02:33:16;7.03;;;1.48;;
33987;SDS011;37428;53.580;-1.666;2023-02-26T02:36:38;11.18;;;1.92;;
33987;SDS011;37428;53.580;-1.666;2023-02-26T02:39:46;8.10;;;1.40;;
33987;SDS011;37428;53.580;-1.666;2023-02-26T02:42:54;5.93;;;1.40;;
33987;SDS011;37428;53.580;-1.666;2023-02-26T02:46:00;10.52;;;1.95;;
33987;SDS011;37428;53.580;-1.666;2023-02-26T02:49:08;11.73;;;2.20;;
33987;SDS011;37428;53.580;-1.666;2023-02-26T02:52:16;8.63;;;1.40;;
33987;SDS011;37428;53.580;-1.666;2023-02-26T02:55:21;8.73;;;1.63;;
33987;SDS011;37428;53.580;-1.666;2023-02-26T02:58:27;8.23;;;1.77;;
33987;SDS011;37428;53.580;-1.666;2023-02-26T03:01:32;9.75;;;1.85;;
33987;SDS011;37428;53.580;-1.666;2023-02-26T03:04:37;10.25;;;1.20;;
33987;SDS011;37428;53.580;-1.666;2023-02-26T03:07:44;8.90;;;1.92;;
33987;SDS011;37428;53.580;-1.666;2023-02-26T03:10:50;6.15;;;1.77;;
33987;SDS011;37428;53.580;-1.666;2023-02-26T03:13:52;18.50;;;2.00;;
33987;SDS011;37428;53.580;-1.666;2023-02-26T03:20:07;5.47;;;1.27;;
33987;SDS011;37428;53.580;-1.666;2023-02-26T03:23:16;8.38;;;2.28;;
33987;SDS011;37428;53.580;-1.666;2023-02-26T03:26:23;9.65;;;1.50;;
33987;SDS011;37428;53.580;-1.666;2023-02-26T03:29:32;9.52;;;1.92;;
33987;SDS011;37428;53.580;-1.666;2023-02-26T03:32:42;12.07;;;2.00;;
33987;SDS011;37428;53.580;-1.666;2023-02-26T03:35:54;12.38;;;1.77;;
33987;SDS011;37428;53.580;-1.666;2023-02-26T03:39:02;7.30;;;1.45;;
33987;SDS011;37428;53.580;-1.666;2023-02-26T03:42:10;13.68;;;1.33;;
33987;SDS011;37428;53.580;-1.666;2023-02-26T03:45:18;10.80;;;1.80;;
33987;SDS011;37428;53.580;-1.666;2023-02-26T03:48:24;10.32;;;1.38;;
33987;SDS011;37428;53.580;-1.666;2023-02-26T03:51:30;10.98;;;1.33;;
33987;SDS011;37428;53.580;-1.666;2023-02-26T03:54:34;7.53;;;1.52;;
33987;SDS011;37428;53.580;-1.666;2023-02-26T03:57:39;5.57;;;1.80;;
33987;SDS011;37428;53.580;-1.666;2023-02-26T04:00:45;9.75;;;1.80;;
33987;SDS011;37428;53.580;-1.666;2023-02-26T04:03:53;13.55;;;1.48;;
33987;SDS011;37428;53.580;-1.666;2023-02-26T04:07:00;12.88;;;1.15;;
33987;SDS011;37428;53.580;-1.666;2023-02-26T04:10:04;13.13;;;1.77;;
33987;SDS011;37428;53.580;-1.666;2023-02-26T04:13:09;7.32;;;1.75;;
33987;SDS011;37428;53.580;-1.666;2023-02-26T04:16:11;10.63;;;1.55;;
33987;SDS011;37428;53.580;-1.666;2023-02-26T04:19:14;7.65;;;1.50;;
33987;SDS011;37428;53.580;-1.666;2023-02-26T04:22:18;16.33;;;1.98;;
33987;SDS011;37428;53.580;-1.666;2023-02-26T04:25:21;9.93;;;1.77;;
33987;SDS011;37428;53.580;-1.666;2023-02-26T04:28:23;5.07;;;1.38;;
33987;SDS011;37428;53.580;-1.666;2023-02-26T04:31:25;18.00;;;1.98;;
33987;SDS011;37428;53.580;-1.666;2023-02-26T04:34:29;10.45;;;2.05;;
33987;SDS011;37428;53.580;-1.666;2023-02-26T04:37:34;15.95;;;2.97;;
33987;SDS011;37428;53.580;-1.666;2023-02-26T04:40:36;9.85;;;2.72;;
33987;SDS011;37428;53.580;-1.666;2023-02-26T04:43:38;11.32;;;2.78;;
33987;SDS011;37428;53.580;-1.666;2023-02-26T04:46:40;8.75;;;1.33;;
33987;SDS011;37428;53.580;-1.666;2023-02-26T04:49:42;12.77;;;1.45;;
33987;SDS011;37428;53.580;-1.666;2023-02-26T04:52:47;23.45;;;3.15;;
33987;SDS011;37428;53.580;-1.666;2023-02-26T04:55:49;9.90;;;1.73;;
33987;SDS011;37428;53.580;-1.666;2023-02-26T04:59:12;10.52;;;2.33;;
33987;SDS011;37428;53.580;-1.666;2023-02-26T05:02:14;9.48;;;2.15;;
33987;SDS011;37428;53.580;-1.666;2023-02-26T05:05:18;8.93;;;1.90;;
33987;SDS011;37428;53.580;-1.666;2023-02-26T05:08:21;9.82;;;1.85;;
33987;SDS011;37428;53.580;-1.666;2023-02-26T05:11:24;10.20;;;2.17;;
33987;SDS011;37428;53.580;-1.666;2023-02-26T05:14:27;9.75;;;1.80;;
33987;SDS011;37428;53.580;-1.666;2023-02-26T05:17:30;12.73;;;2.00;;
33987;SDS011;37428;53.580;-1.666;2023-02-26T05:20:32;10.00;;;2.33;;
33987;SDS011;37428;53.580;-1.666;2023-02-26T05:23:35;6.47;;;1.58;;
33987;SDS011;37428;53.580;-1.666;2023-02-26T05:26:39;9.05;;;1.80;;
33987;SDS011;37428;53.580;-1.666;2023-02-26T05:29:41;11.05;;;2.83;;
33987;SDS011;37428;53.580;-1.666;2023-02-26T05:32:44;9.48;;;1.80;;
33987;SDS011;37428;53.580;-1.666;2023-02-26T05:35:56;9.35;;;1.40;;
33987;SDS011;37428;53.580;-1.666;2023-02-26T05:38:59;11.73;;;1.88;;
33987;SDS011;37428;53.580;-1.666;2023-02-26T05:42:01;8.10;;;1.55;;
33987;SDS011;37428;53.580;-1.666;2023-02-26T05:45:13;13.95;;;2.00;;
33987;SDS011;37428;53.580;-1.666;2023-02-26T05:48:15;9.15;;;2.10;;
33987;SDS011;37428;53.580;-1.666;2023-02-26T05:51:18;11.00;;;2.22;;
33987;SDS011;37428;53.580;-1.666;2023-02-26T05:54:21;10.50;;;2.72;;
33987;SDS011;37428;53.580;-1.666;2023-02-26T05:57:24;11.55;;;2.67;;
33987;SDS011;37428;53.580;-1.666;2023-02-26T06:00:26;8.60;;;2.00;;
33987;SDS011;37428;53.580;-1.666;2023-02-26T06:03:28;9.07;;;1.70;;
33987;SDS011;37428;53.580;-1.666;2023-02-26T06:06:31;12.98;;;1.90;;
33987;SDS011;37428;53.580;-1.666;2023-02-26T06:12:36;14.35;;;3.28;;
33987;SDS011;37428;53.580;-1.666;2023-02-26T06:15:41;15.13;;;2.33;;
33987;SDS011;37428;53.580;-1.666;2023-02-26T06:18:43;17.80;;;3.28;;
33987;SDS011;37428;53.580;-1.666;2023-02-26T06:21:45;10.60;;;2.10;;
33987;SDS011;37428;53.580;-1.666;2023-02-26T06:24:54;13.35;;;2.58;;
33987;SDS011;37428;53.580;-1.666;2023-02-26T06:27:56;10.23;;;2.63;;
33987;SDS011;37428;53.580;-1.666;2023-02-26T06:30:58;10.20;;;2.97;;
33987;SDS011;37428;53.580;-1.666;2023-02-26T06:34:01;14.05;;;2.70;;
33987;SDS011;37428;53.580;-1.666;2023-02-26T06:40:09;10.80;;;2.35;;
33987;SDS011;37428;53.580;-1.666;2023-02-26T06:43:12;9.48;;;1.90;;
33987;SDS011;37428;53.580;-1.666;2023-02-26T06:46:14;5.80;;;1.50;;
33987;SDS011;37428;53.580;-1.666;2023-02-26T06:49:16;10.45;;;2.85;;
33987;SDS011;37428;53.580;-1.666;2023-02-26T06:52:21;19.10;;;2.63;;
33987;SDS011;37428;53.580;-1.666;2023-02-26T06:55:35;11.88;;;2.38;;
33987;SDS011;37428;53.580;-1.666;2023-02-26T06:58:37;8.93;;;1.80;;
33987;SDS011;37428;53.580;-1.666;2023-02-26T07:01:39;8.20;;;2.03;;
33987;SDS011;37428;53.580;-1.666;2023-02-26T07:04:41;9.63;;;2.03;;
33987;SDS011;37428;53.580;-1.666;2023-02-26T07:07:43;12.43;;;2.70;;
33987;SDS011;37428;53.580;-1.666;2023-02-26T07:10:47;10.52;;;2.00;;
33987;SDS011;37428;53.580;-1.666;2023-02-26T07:13:49;8.40;;;2.10;;
33987;SDS011;37428;53.580;-1.666;2023-02-26T07:16:53;12.65;;;1.80;;
33987;SDS011;37428;53.580;-1.666;2023-02-26T07:19:55;8.93;;;2.00;;
33987;SDS011;37428;53.580;-1.666;2023-02-26T07:22:58;13.52;;;2.33;;
33987;SDS011;37428;53.580;-1.666;2023-02-26T07:26:01;10.43;;;1.70;;
33987;SDS011;37428;53.580;-1.666;2023-02-26T07:29:04;10.48;;;1.73;;
33987;SDS011;37428;53.580;-1.666;2023-02-26T07:32:06;9.50;;;2.38;;
33987;SDS011;37428;53.580;-1.666;2023-02-26T07:35:08;10.05;;;2.13;;
33987;SDS011;37428;53.580;-1.666;2023-02-26T07:38:11;13.10;;;2.05;;
33987;SDS011;37428;53.580;-1.666;2023-02-26T07:41:14;10.15;;;3.60;;
33987;SDS011;37428;53.580;-1.666;2023-02-26T07:44:16;6.35;;;1.85;;
33987;SDS011;37428;53.580;-1.666;2023-02-26T07:47:18;13.38;;;1.85;;
33987;SDS011;37428;53.580;-1.666;2023-02-26T07:50:20;10.52;;;1.98;;
33987;SDS011;37428;53.580;-1.666;2023-02-26T07:53:24;10.88;;;2.03;;
33987;SDS011;37428;53.580;-1.666;2023-02-26T07:56:28;11.50;;;2.35;;
33987;SDS011;37428;53.580;-1.666;2023-02-26T07:59:30;12.77;;;1.80;;
33987;SDS011;37428;53.580;-1.666;2023-02-26T08:02:33;16.83;;;3.47;;
33987;SDS011;37428;53.580;-1.666;2023-02-26T08:05:35;7.25;;;1.90;;
33987;SDS011;37428;53.580;-1.666;2023-02-26T08:08:37;13.63;;;2.15;;
33987;SDS011;37428;53.580;-1.666;2023-02-26T08:11:42;11.32;;;1.85;;
33987;SDS011;37428;53.580;-1.666;2023-02-26T08:14:45;6.93;;;1.48;;
33987;SDS011;37428;53.580;-1.666;2023-02-26T08:17:47;9.45;;;1.60;;
33987;SDS011;37428;53.580;-1.666;2023-02-26T08:20:49;12.82;;;1.63;;
33987;SDS011;37428;53.580;-1.666;2023-02-26T08:23:52;16.77;;;1.45;;
33987;SDS011;37428;53.580;-1.666;2023-02-26T08:26:56;8.27;;;1.80;;
33987;SDS011;37428;53.580;-1.666;2023-02-26T08:29:58;12.32;;;1.83;;
33987;SDS011;37428;53.580;-1.666;2023-02-26T08:33:00;15.07;;;2.53;;
33987;SDS011;37428;53.580;-1.666;2023-02-26T08:36:03;6.53;;;2.10;;
33987;SDS011;37428;53.580;-1.666;2023-02-26T08:39:05;7.53;;;1.30;;
33987;SDS011;37428;53.580;-1.666;2023-02-26T08:42:09;14.07;;;2.60;;
33987;SDS011;37428;53.580;-1.666;2023-02-26T08:45:15;11.93;;;3.15;;
33987;SDS011;37428;53.580;-1.666;2023-02-26T08:48:17;15.95;;;2.78;;
33987;SDS011;37428;53.580;-1.666;2023-02-26T08:51:20;12.93;;;2.92;;
33987;SDS011;37428;53.580;-1.666;2023-02-26T08:54:22;15.73;;;1.83;;
33987;SDS011;37428;53.580;-1.666;2023-02-26T08:57:26;11.43;;;2.88;;
33987;SDS011;37428;53.580;-1.666;2023-02-26T09:00:27;8.38;;;2.30;;
33987;SDS011;37428;53.580;-1.666;2023-02-26T09:03:32;9.55;;;2.22;;
33987;SDS011;37428;53.580;-1.666;2023-02-26T09:06:34;12.50;;;2.95;;
33987;SDS011;37428;53.580;-1.666;2023-02-26T09:09:36;16.45;;;3.13;;
33987;SDS011;37428;53.580;-1.666;2023-02-26T09:12:40;10.80;;;2.63;;
33987;SDS011;37428;53.580;-1.666;2023-02-26T09:15:43;14.07;;;2.15;;
33987;SDS011;37428;53.580;-1.666;2023-02-26T09:18:45;10.68;;;1.77;;
33987;SDS011;37428;53.580;-1.666;2023-02-26T09:21:47;9.15;;;1.77;;
33987;SDS011;37428;53.580;-1.666;2023-02-26T09:24:51;7.60;;;1.30;;
33987;SDS011;37428;53.580;-1.666;2023-02-26T09:27:55;7.18;;;1.67;;
33987;SDS011;37428;53.580;-1.666;2023-02-26T09:30:57;12.38;;;1.58;;
33987;SDS011;37428;53.580;-1.666;2023-02-26T09:33:59;8.00;;;1.42;;
33987;SDS011;37428;53.580;-1.666;2023-02-26T09:37:01;6.03;;;1.40;;
33987;SDS011;37428;53.580;-1.666;2023-02-26T09:40:05;15.73;;;1.80;;
33987;SDS011;37428;53.580;-1.666;2023-02-26T09:46:57;8.77;;;1.67;;
33987;SDS011;37428;53.580;-1.666;2023-02-26T09:50:03;14.07;;;2.03;;
33987;SDS011;37428;53.580;-1.666;2023-02-26T09:53:23;11.23;;;1.48;;
33987;SDS011;37428;53.580;-1.666;2023-02-26T09:56:31;9.93;;;1.75;;
33987;SDS011;37428;53.580;-1.666;2023-02-26T09:59:37;7.13;;;1.33;;
33987;SDS011;37428;53.580;-1.666;2023-02-26T10:02:46;7.82;;;1.30;;
33987;SDS011;37428;53.580;-1.666;2023-02-26T10:06:07;14.18;;;2.80;;
33987;SDS011;37428;53.580;-1.666;2023-02-26T10:09:21;13.20;;;2.45;;
33987;SDS011;37428;53.580;-1.666;2023-02-26T10:15:38;10.60;;;1.30;;
33987;SDS011;37428;53.580;-1.666;2023-02-26T10:18:43;10.27;;;1.80;;
33987;SDS011;37428;53.580;-1.666;2023-02-26T10:21:53;9.38;;;1.60;;
33987;SDS011;37428;53.580;-1.666;2023-02-26T10:24:59;12.07;;;1.45;;
33987;SDS011;37428;53.580;-1.666;2023-02-26T10:28:07;17.25;;;2.85;;
33987;SDS011;37428;53.580;-1.666;2023-02-26T10:31:31;12.52;;;2.17;;
33987;SDS011;37428;53.580;-1.666;2023-02-26T10:34:38;11.70;;;1.98;;
33987;SDS011;37428;53.580;-1.666;2023-02-26T10:37:47;14.52;;;1.73;;
33987;SDS011;37428;53.580;-1.666;2023-02-26T10:40:54;15.23;;;2.35;;
33987;SDS011;37428;53.580;-1.666;2023-02-26T10:44:03;8.45;;;3.03;;
33987;SDS011;37428;53.580;-1.666;2023-02-26T10:47:15;13.55;;;1.98;;
33987;SDS011;37428;53.580;-1.666;2023-02-26T10:50:23;11.93;;;1.77;;
33987;SDS011;37428;53.580;-1.666;2023-02-26T10:53:27;16.63;;;2.70;;
33987;SDS011;37428;53.580;-1.666;2023-02-26T10:56:32;12.07;;;2.10;;
33987;SDS011;37428;53.580;-1.666;2023-02-26T10:59:34;20.95;;;5.10;;
33987;SDS011;37428;53.580;-1.666;2023-02-26T11:02:39;7.57;;;1.60;;
33987;SDS011;37428;53.580;-1.666;2023-02-26T11:05:42;10.88;;;1.80;;
33987;SDS011;37428;53.580;-1.666;2023-02-26T11:08:45;11.48;;;1.67;;
33987;SDS011;37428;53.580;-1.666;2023-02-26T11:11:52;13.10;;;2.33;;
33987;SDS011;37428;53.580;-1.666;2023-02-26T11:14:56;16.00;;;2.50;;
33987;SDS011;37428;53.580;-1.666;2023-02-26T11:18:02;9.75;;;2.20;;
33987;SDS011;37428;53.580;-1.666;2023-02-26T11:21:05;13.98;;;2.17;;
33987;SDS011;37428;53.580;-1.666;2023-02-26T11:24:10;8.27;;;1.80;;
33987;SDS011;37428;53.580;-1.666;2023-02-26T11:27:16;11.30;;;2.17;;
33987;SDS011;37428;53.580;-1.666;2023-02-26T11:30:21;18.38;;;2.90;;
33987;SDS011;37428;53.580;-1.666;2023-02-26T11:33:33;11.23;;;2.38;;
33987;SDS011;37428;53.580;-1.666;2023-02-26T11:36:38;17.75;;;2.55;;
33987;SDS011;37428;53.580;-1.666;2023-02-26T11:39:42;13.73;;;2.20;;
33987;SDS011;37428;53.580;-1.666;2023-02-26T11:42:47;9.93;;;1.92;;
33987;SDS011;37428;53.580;-1.666;2023-02-26T11:45:54;13.50;;;2.55;;
33987;SDS011;37428;53.580;-1.666;2023-02-26T11:49:01;12.93;;;1.90;;
33987;SDS011;37428;53.580;-1.666;2023-02-26T11:52:05;10.05;;;1.60;;
33987;SDS011;37428;53.580;-1.666;2023-02-26T11:55:19;13.40;;;1.90;;
33987;SDS011;37428;53.580;-1.666;2023-02-26T11:58:27;11.50;;;2.67;;
33987;SDS011;37428;53.580;-1.666;2023-02-26T12:01:30;10.00;;;1.63;;
33987;SDS011;37428;53.580;-1.666;2023-02-26T12:04:34;21.02;;;2.00;;
33987;SDS011;37428;53.580;-1.666;2023-02-26T12:07:40;7.07;;;1.40;;
33987;SDS011;37428;53.580;-1.666;2023-02-26T12:10:48;13.48;;;1.10;;
33987;SDS011;37428;53.580;-1.666;2023-02-26T12:14:01;10.35;;;2.17;;
33987;SDS011;37428;53.580;-1.666;2023-02-26T12:17:15;8.15;;;1.17;;
33987;SDS011;37428;53.580;-1.666;2023-02-26T12:20:34;9.10;;;1.25;;
33987;SDS011;37428;53.580;-1.666;2023-02-26T12:30:41;10.52;;;1.58;;
33987;SDS011;37428;53.580;-1.666;2023-02-26T12:33:54;9.77;;;2.25;;
33987;SDS011;37428;53.580;-1.666;2023-02-26T12:37:13;9.80;;;1.65;;
33987;SDS011;37428;53.580;-1.666;2023-02-26T12:40:48;11.75;;;1.75;;
33987;SDS011;37428;53.580;-1.666;2023-02-26T12:43:59;7.68;;;1.70;;
33987;SDS011;37428;53.580;-1.666;2023-02-26T12:50:42;4.25;;;1.13;;
33987;SDS011;37428;53.580;-1.666;2023-02-26T12:54:04;15.65;;;2.70;;
33987;SDS011;37428;53.580;-1.666;2023-02-26T12:57:24;9.40;;;1.45;;
33987;SDS011;37428;53.580;-1.666;2023-02-26T13:00:55;10.30;;;2.08;;
33987;SDS011;37428;53.580;-1.666;2023-02-26T13:04:13;10.68;;;1.98;;
33987;SDS011;37428;53.580;-1.666;2023-02-26T13:11:03;4.32;;;1.23;;
33987;SDS011;37428;53.580;-1.666;2023-02-26T13:14:27;5.78;;;1.88;;
33987;SDS011;37428;53.580;-1.666;2023-02-26T13:17:38;6.55;;;1.40;;
33987;SDS011;37428;53.580;-1.666;2023-02-26T13:20:47;4.88;;;1.67;;
33987;SDS011;37428;53.580;-1.666;2023-02-26T13:23:59;7.40;;;1.60;;
33987;SDS011;37428;53.580;-1.666;2023-02-26T13:27:08;8.63;;;2.85;;
33987;SDS011;37428;53.580;-1.666;2023-02-26T13:30:18;6.28;;;2.50;;
33987;SDS011;37428;53.580;-1.666;2023-02-26T13:33:25;6.80;;;1.60;;
33987;SDS011;37428;53.580;-1.666;2023-02-26T13:36:32;7.20;;;1.88;;
33987;SDS011;37428;53.580;-1.666;2023-02-26T13:39:37;4.90;;;1.23;;
33987;SDS011;37428;53.580;-1.666;2023-02-26T13:42:52;6.45;;;1.52;;
33987;SDS011;37428;53.580;-1.666;2023-02-26T13:46:07;8.30;;;1.60;;
33987;SDS011;37428;53.580;-1.666;2023-02-26T13:49:21;4.90;;;1.30;;
33987;SDS011;37428;53.580;-1.666;2023-02-26T13:52:30;6.55;;;1.50;;
33987;SDS011;37428;53.580;-1.666;2023-02-26T13:55:37;6.65;;;1.77;;
33987;SDS011;37428;53.580;-1.666;2023-02-26T13:58:50;7.03;;;2.03;;
33987;SDS011;37428;53.580;-1.666;2023-02-26T14:01:55;6.53;;;1.15;;
33987;SDS011;37428;53.580;-1.666;2023-02-26T14:05:00;4.45;;;1.15;;
33987;SDS011;37428;53.580;-1.666;2023-02-26T14:08:23;11.48;;;2.03;;
33987;SDS011;37428;53.580;-1.666;2023-02-26T14:11:44;6.22;;;1.88;;
33987;SDS011;37428;53.580;-1.666;2023-02-26T14:15:16;14.15;;;2.78;;
33987;SDS011;37428;53.580;-1.666;2023-02-26T14:18:31;9.63;;;2.40;;
33987;SDS011;37428;53.580;-1.666;2023-02-26T14:21:45;7.05;;;1.60;;
33987;SDS011;37428;53.580;-1.666;2023-02-26T14:24:51;13.52;;;1.92;;
33987;SDS011;37428;53.580;-1.666;2023-02-26T14:31:24;6.78;;;1.65;;
33987;SDS011;37428;53.580;-1.666;2023-02-26T14:34:29;8.70;;;1.30;;
33987;SDS011;37428;53.580;-1.666;2023-02-26T14:37:34;6.85;;;1.08;;
33987;SDS011;37428;53.580;-1.666;2023-02-26T14:40:42;6.72;;;1.20;;
33987;SDS011;37428;53.580;-1.666;2023-02-26T14:43:49;7.63;;;1.10;;
33987;SDS011;37428;53.580;-1.666;2023-02-26T14:46:58;8.52;;;1.48;;
33987;SDS011;37428;53.580;-1.666;2023-02-26T14:50:04;7.28;;;1.98;;
33987;SDS011;37428;53.580;-1.666;2023-02-26T14:53:28;6.88;;;1.00;;
33987;SDS011;37428;53.580;-1.666;2023-02-26T14:57:00;4.47;;;1.02;;
33987;SDS011;37428;53.580;-1.666;2023-02-26T15:00:17;3.30;;;1.00;;
33987;SDS011;37428;53.580;-1.666;2023-02-26T15:03:36;6.93;;;1.30;;
33987;SDS011;37428;53.580;-1.666;2023-02-26T15:07:06;5.80;;;1.92;;
33987;SDS011;37428;53.580;-1.666;2023-02-26T15:10:33;11.93;;;1.80;;
33987;SDS011;37428;53.580;-1.666;2023-02-26T15:13:49;4.80;;;1.20;;
33987;SDS011;37428;53.580;-1.666;2023-02-26T15:17:09;5.78;;;1.20;;
33987;SDS011;37428;53.580;-1.666;2023-02-26T15:20:26;6.22;;;1.30;;
33987;SDS011;37428;53.580;-1.666;2023-02-26T15:23:37;12.15;;;1.20;;
33987;SDS011;37428;53.580;-1.666;2023-02-26T15:26:44;10.05;;;1.40;;
33987;SDS011;37428;53.580;-1.666;2023-02-26T15:29:48;7.20;;;1.48;;
33987;SDS011;37428;53.580;-1.666;2023-02-26T15:32:56;12.10;;;3.47;;
33987;SDS011;37428;53.580;-1.666;2023-02-26T15:36:00;13.68;;;1.40;;
33987;SDS011;37428;53.580;-1.666;2023-02-26T15:39:06;7.22;;;1.73;;
33987;SDS011;37428;53.580;-1.666;2023-02-26T15:45:12;6.50;;;0.88;;
33987;SDS011;37428;53.580;-1.666;2023-02-26T15:48:21;10.15;;;1.67;;
33987;SDS011;37428;53.580;-1.666;2023-02-26T15:51:28;9.15;;;1.77;;
33987;SDS011;37428;53.580;-1.666;2023-02-26T15:54:34;7.90;;;2.97;;
33987;SDS011;37428;53.580;-1.666;2023-02-26T15:57:41;5.95;;;2.58;;
33987;SDS011;37428;53.580;-1.666;2023-02-26T16:00:50;8.45;;;1.80;;
33987;SDS011;37428;53.580;-1.666;2023-02-26T16:03:55;6.50;;;1.35;;
33987;SDS011;37428;53.580;-1.666;2023-02-26T16:06:59;8.00;;;1.35;;
33987;SDS011;37428;53.580;-1.666;2023-02-26T16:10:03;5.72;;;1.38;;
33987;SDS011;37428;53.580;-1.666;2023-02-26T16:13:09;6.57;;;1.20;;
33987;SDS011;37428;53.580;-1.666;2023-02-26T16:16:16;9.20;;;1.90;;
33987;SDS011;37428;53.580;-1.666;2023-02-26T16:19:24;10.52;;;1.42;;
33987;SDS011;37428;53.580;-1.666;2023-02-26T16:22:34;10.07;;;1.80;;
33987;SDS011;37428;53.580;-1.666;2023-02-26T16:25:39;6.38;;;1.60;;
33987;SDS011;37428;53.580;-1.666;2023-02-26T16:28:48;5.63;;;1.42;;
33987;SDS011;37428;53.580;-1.666;2023-02-26T16:31:58;7.60;;;1.58;;
33987;SDS011;37428;53.580;-1.666;2023-02-26T16:35:16;6.75;;;1.75;;
33987;SDS011;37428;53.580;-1.666;2023-02-26T16:38:24;10.38;;;1.70;;
33987;SDS011;37428;53.580;-1.666;2023-02-26T16:41:45;9.10;;;2.35;;
33987;SDS011;37428;53.580;-1.666;2023-02-26T16:44:49;9.60;;;5.00;;
33987;SDS011;37428;53.580;-1.666;2023-02-26T16:47:53;12.73;;;6.22;;
33987;SDS011;37428;53.580;-1.666;2023-02-26T16:51:01;12.73;;;3.67;;
33987;SDS011;37428;53.580;-1.666;2023-02-26T16:54:13;12.75;;;5.10;;
33987;SDS011;37428;53.580;-1.666;2023-02-26T16:57:19;12.05;;;6.03;;
33987;SDS011;37428;53.580;-1.666;2023-02-26T17:00:33;13.05;;;5.22;;
33987;SDS011;37428;53.580;-1.666;2023-02-26T17:03:38;16.10;;;6.47;;
33987;SDS011;37428;53.580;-1.666;2023-02-26T17:06:43;15.13;;;4.47;;
33987;SDS011;37428;53.580;-1.666;2023-02-26T17:09:50;9.60;;;1.70;;
33987;SDS011;37428;53.580;-1.666;2023-02-26T17:13:00;10.18;;;2.40;;
33987;SDS011;37428;53.580;-1.666;2023-02-26T17:16:05;12.80;;;3.75;;
33987;SDS011;37428;53.580;-1.666;2023-02-26T17:19:11;10.05;;;4.10;;
33987;SDS011;37428;53.580;-1.666;2023-02-26T17:22:15;11.48;;;3.63;;
33987;SDS011;37428;53.580;-1.666;2023-02-26T17:25:22;18.25;;;9.52;;
33987;SDS011;37428;53.580;-1.666;2023-02-26T17:28:26;10.32;;;5.40;;
33987;SDS011;37428;53.580;-1.666;2023-02-26T17:31:30;7.72;;;4.75;;
33987;SDS011;37428;53.580;-1.666;2023-02-26T17:34:32;16.63;;;6.78;;
33987;SDS011;37428;53.580;-1.666;2023-02-26T17:37:35;12.48;;;6.55;;
33987;SDS011;37428;53.580;-1.666;2023-02-26T17:40:40;13.57;;;6.20;;
33987;SDS011;37428;53.580;-1.666;2023-02-26T17:43:46;8.43;;;3.45;;
33987;SDS011;37428;53.580;-1.666;2023-02-26T17:46:48;17.48;;;4.80;;
33987;SDS011;37428;53.580;-1.666;2023-02-26T17:49:51;22.95;;;9.55;;
33987;SDS011;37428;53.580;-1.666;2023-02-26T17:52:54;24.23;;;11.27;;
33987;SDS011;37428;53.580;-1.666;2023-02-26T17:55:57;20.38;;;6.88;;
33987;SDS011;37428;53.580;-1.666;2023-02-26T17:59:00;22.05;;;9.30;;
33987;SDS011;37428;53.580;-1.666;2023-02-26T18:02:07;20.00;;;9.10;;
33987;SDS011;37428;53.580;-1.666;2023-02-26T18:05:16;16.63;;;8.35;;
33987;SDS011;37428;53.580;-1.666;2023-02-26T18:08:20;29.65;;;18.40;;
33987;SDS011;37428;53.580;-1.666;2023-02-26T18:11:25;38.15;;;18.77;;
33987;SDS011;37428;53.580;-1.666;2023-02-26T18:14:27;31.15;;;12.10;;
33987;SDS011;37428;53.580;-1.666;2023-02-26T18:17:30;62.97;;;24.63;;
33987;SDS011;37428;53.580;-1.666;2023-02-26T18:20:33;52.58;;;19.73;;
33987;SDS011;37428;53.580;-1.666;2023-02-26T18:23:36;22.10;;;10.02;;
33987;SDS011;37428;53.580;-1.666;2023-02-26T18:26:40;20.88;;;8.00;;
33987;SDS011;37428;53.580;-1.666;2023-02-26T18:29:44;18.05;;;5.70;;
33987;SDS011;37428;53.580;-1.666;2023-02-26T18:32:47;14.73;;;4.25;;
33987;SDS011;37428;53.580;-1.666;2023-02-26T18:35:50;26.90;;;7.93;;
33987;SDS011;37428;53.580;-1.666;2023-02-26T18:38:55;20.20;;;7.20;;
33987;SDS011;37428;53.580;-1.666;2023-02-26T18:42:02;36.67;;;9.30;;
33987;SDS011;37428;53.580;-1.666;2023-02-26T18:45:04;9.98;;;3.38;;
33987;SDS011;37428;53.580;-1.666;2023-02-26T18:48:09;13.80;;;3.65;;
33987;SDS011;37428;53.580;-1.666;2023-02-26T18:51:12;7.68;;;3.20;;
33987;SDS011;37428;53.580;-1.666;2023-02-26T18:54:16;7.35;;;2.25;;
33987;SDS011;37428;53.580;-1.666;2023-02-26T18:57:19;6.70;;;2.00;;
33987;SDS011;37428;53.580;-1.666;2023-02-26T19:00:22;9.40;;;2.50;;
33987;SDS011;37428;53.580;-1.666;2023-02-26T19:03:29;9.25;;;2.35;;